createdAt,value
2022-08-17T00:01:29.992Z,24.20
2022-08-17T00:03:59.189Z,24.17
2022-08-17T00:06:28.886Z,24.18
2022-08-17T00:09:01.316Z,24.14
2022-08-17T00:11:32.046Z,24.11
2022-08-17T00:14:08.158Z,24.12
2022-08-17T00:16:56.068Z,24.07
2022-08-17T00:19:25.944Z,24.03
2022-08-17T00:22:32.746Z,24.03
2022-08-17T00:24:42.810Z,23.98
2022-08-17T00:27:09.194Z,23.97
2022-08-17T00:29:35.584Z,23.96
2022-08-17T00:33:22.894Z,23.95
2022-08-17T00:34:49.636Z,23.92
2022-08-17T00:37:16.213Z,23.85
2022-08-17T00:39:42.603Z,23.79
2022-08-17T00:42:14.565Z,23.85
2022-08-17T00:44:41.044Z,23.75
2022-08-17T00:47:07.628Z,23.73
2022-08-17T00:49:34.023Z,23.74
2022-08-17T00:52:10.827Z,23.71
2022-08-17T00:54:42.396Z,23.68
2022-08-17T00:57:12.635Z,23.70
2022-08-17T01:00:02.167Z,23.65
2022-08-17T01:02:34.433Z,23.61
2022-08-17T01:05:12.697Z,23.59
2022-08-17T01:07:39.443Z,23.58
2022-08-17T01:11:00.380Z,23.57
2022-08-17T01:12:58.028Z,23.55
2022-08-17T01:15:24.557Z,23.55
2022-08-17T01:17:51.129Z,23.54
2022-08-17T01:20:17.682Z,23.53
2022-08-17T01:22:44.077Z,23.55
2022-08-17T01:25:12.554Z,23.53
2022-08-17T01:27:39.071Z,23.47
2022-08-17T01:30:58.171Z,23.46
2022-08-17T01:32:56.916Z,23.40
2022-08-17T01:35:23.545Z,23.36
2022-08-17T01:37:50.039Z,23.32
2022-08-17T01:40:35.383Z,23.37
2022-08-17T01:43:10.389Z,23.36
2022-08-17T01:45:44.920Z,23.36
2022-08-17T01:48:12.138Z,23.31
2022-08-17T01:50:41.468Z,23.31
2022-08-17T01:53:13.298Z,23.29
2022-08-17T01:55:52.295Z,23.25
2022-08-17T01:58:20.245Z,23.26
2022-08-17T02:01:00.649Z,23.23
2022-08-17T02:03:28.793Z,23.21
2022-08-17T02:05:55.531Z,23.16
2022-08-17T02:08:38.873Z,23.09
2022-08-17T02:11:11.486Z,23.15
2022-08-17T02:13:39.057Z,23.15
2022-08-17T02:16:05.762Z,23.11
2022-08-17T02:18:32.189Z,23.07
2022-08-17T02:20:58.636Z,23.03
2022-08-17T02:23:28.304Z,23.03
2022-08-17T02:25:57.594Z,22.99
2022-08-17T02:28:24.036Z,22.97
2022-08-17T02:31:02.557Z,22.93
2022-08-17T02:33:42.911Z,22.91
2022-08-17T02:36:11.379Z,22.86
2022-08-17T02:38:38.876Z,22.87
2022-08-17T02:41:05.790Z,22.83
2022-08-17T02:43:32.659Z,22.81
2022-08-17T02:45:59.069Z,22.76
2022-08-17T02:48:30.825Z,22.73
2022-08-17T02:50:57.895Z,22.68
2022-08-17T02:53:24.284Z,22.66
2022-08-17T02:55:52.814Z,22.67
2022-08-17T02:58:34.356Z,22.67
2022-08-17T03:01:03.850Z,22.62
2022-08-17T03:03:30.236Z,22.60
2022-08-17T03:05:56.684Z,22.62
2022-08-17T03:08:23.427Z,22.58
2022-08-17T03:10:50.319Z,22.57
2022-08-17T03:13:17.261Z,22.61
2022-08-17T03:15:46.177Z,22.62
2022-08-17T03:18:24.954Z,22.60
2022-08-17T03:20:58.418Z,22.62
2022-08-17T03:23:26.256Z,22.56
2022-08-17T03:25:54.744Z,22.55
2022-08-17T03:28:21.912Z,22.55
2022-08-17T03:30:49.342Z,22.49
2022-08-17T03:33:16.775Z,22.46
2022-08-17T03:35:43.489Z,22.48
2022-08-17T03:38:11.755Z,22.48
2022-08-17T03:40:57.031Z,22.47
2022-08-17T03:43:28.549Z,22.48
2022-08-17T03:46:28.327Z,22.48
2022-08-17T03:49:19.699Z,22.49
2022-08-17T03:52:04.553Z,22.49
2022-08-17T03:54:49.823Z,22.50
2022-08-17T03:57:16.568Z,22.50
2022-08-17T03:59:43.016Z,22.52
2022-08-17T04:02:16.618Z,22.59
2022-08-17T04:04:42.976Z,22.58
2022-08-17T04:07:09.412Z,22.61
2022-08-17T04:09:36.542Z,22.61
2022-08-17T04:12:04.974Z,22.61
2022-08-17T04:14:39.181Z,22.63
2022-08-17T04:17:21.155Z,22.62
2022-08-17T04:19:47.898Z,22.64
2022-08-17T04:22:31.794Z,22.64
2022-08-17T04:25:07.793Z,22.71
2022-08-17T04:27:34.194Z,22.66
2022-08-17T04:30:01.641Z,22.68
2022-08-17T04:33:04.632Z,22.68
2022-08-17T04:35:18.996Z,22.79
2022-08-17T04:37:45.405Z,22.70
2022-08-17T04:40:30.717Z,22.70
2022-08-17T04:43:09.116Z,22.73
2022-08-17T04:45:55.181Z,22.73
2022-08-17T04:48:23.926Z,22.69
2022-08-17T04:51:03.126Z,22.75
2022-08-17T04:53:29.528Z,22.73
2022-08-17T04:55:58.205Z,22.73
2022-08-17T04:58:24.675Z,22.73
2022-08-17T05:00:51.150Z,22.71
2022-08-17T05:03:17.590Z,22.71
2022-08-17T05:05:49.184Z,22.71
2022-08-17T05:08:18.549Z,22.79
2022-08-17T05:10:45.819Z,22.75
2022-08-17T05:13:25.123Z,22.80
2022-08-17T05:15:57.291Z,22.82
2022-08-17T05:18:24.657Z,22.78
2022-08-17T05:20:52.603Z,22.76
2022-08-17T05:23:21.394Z,22.81
2022-08-17T05:25:50.990Z,22.83
2022-08-17T05:28:19.963Z,22.82
2022-08-17T05:30:51.047Z,22.80
2022-08-17T05:33:29.661Z,22.88
2022-08-17T05:35:58.985Z,22.92
2022-08-17T05:38:27.169Z,22.92
2022-08-17T05:40:54.187Z,22.95
2022-08-17T05:43:29.041Z,23.00
2022-08-17T05:46:23.234Z,23.06
2022-08-17T05:48:52.614Z,23.01
2022-08-17T05:51:52.386Z,23.03
2022-08-17T05:54:39.433Z,23.02
2022-08-17T05:57:23.889Z,22.96
2022-08-17T06:00:20.298Z,22.91
2022-08-17T06:03:04.933Z,22.90
2022-08-17T06:06:05.864Z,23.05
2022-08-17T06:08:39.704Z,23.10
2022-08-17T06:11:22.782Z,23.14
2022-08-17T06:14:17.928Z,23.17
2022-08-17T06:16:49.771Z,23.18
2022-08-17T06:19:23.803Z,23.19
2022-08-17T06:21:54.367Z,23.19
2022-08-17T06:24:27.624Z,23.21
2022-08-17T06:26:59.638Z,23.19
2022-08-17T06:29:52.720Z,23.20
2022-08-17T06:32:19.163Z,23.10
2022-08-17T06:34:46.764Z,23.13
2022-08-17T06:37:33.209Z,23.17
2022-08-17T06:40:19.331Z,23.18
2022-08-17T06:43:05.074Z,23.20
2022-08-17T06:45:59.040Z,23.24
2022-08-17T06:48:31.023Z,23.21
2022-08-17T06:51:26.322Z,23.25
2022-08-17T06:54:05.334Z,23.24
2022-08-17T06:57:10.379Z,23.22
2022-08-17T06:59:55.327Z,23.18
2022-08-17T07:03:00.944Z,23.18
2022-08-17T07:05:36.522Z,23.19
2022-08-17T07:08:27.701Z,23.10
2022-08-17T07:11:00.474Z,23.07
2022-08-17T07:13:49.196Z,23.05
2022-08-17T07:16:21.579Z,23.02
2022-08-17T07:18:51.360Z,22.92
2022-08-17T07:21:38.534Z,22.94
2022-08-17T07:24:37.195Z,22.91
2022-08-17T07:27:12.862Z,22.92
2022-08-17T07:29:46.695Z,22.95
2022-08-17T07:32:18.540Z,22.99
2022-08-17T07:35:11.115Z,23.03
2022-08-17T07:37:39.660Z,23.10
2022-08-17T07:40:19.741Z,23.17
2022-08-17T07:43:21.899Z,23.25
2022-08-17T07:46:14.390Z,23.28
2022-08-17T07:48:43.956Z,23.33
2022-08-17T07:51:20.775Z,23.37
2022-08-17T07:53:49.898Z,23.31
2022-08-17T07:56:45.914Z,23.41
2022-08-17T07:59:24.613Z,23.42
2022-08-17T08:01:56.391Z,23.40
2022-08-17T08:07:26.914Z,23.41
2022-08-17T08:09:59.189Z,23.40
2022-08-17T08:12:44.031Z,23.38
2022-08-17T08:15:20.552Z,23.43
2022-08-17T08:17:58.525Z,23.45
2022-08-17T08:20:53.312Z,23.51
2022-08-17T08:23:25.962Z,23.56
2022-08-17T08:26:17.951Z,23.78
2022-08-17T08:29:19.294Z,23.96
2022-08-17T08:32:16.371Z,24.14
2022-08-17T08:35:09.195Z,24.33
2022-08-17T08:37:47.913Z,24.47
2022-08-17T08:40:42.168Z,24.65
2022-08-17T08:43:29.936Z,24.77
2022-08-17T08:46:15.721Z,24.83
2022-08-17T08:49:11.945Z,24.82
2022-08-17T08:51:52.486Z,24.79
2022-08-17T08:54:47.746Z,24.83
2022-08-17T08:57:30.819Z,24.80
2022-08-17T09:00:12.441Z,24.75
2022-08-17T09:03:08.343Z,24.78
2022-08-17T09:06:32.291Z,24.83
2022-08-17T09:09:24.192Z,24.80
2022-08-17T09:12:04.958Z,24.76
2022-08-17T09:14:45.250Z,24.77
2022-08-17T09:17:19.887Z,24.73
2022-08-17T09:19:53.429Z,24.83
2022-08-17T09:22:32.472Z,24.82
2022-08-17T09:25:08.398Z,24.91
2022-08-17T09:28:07.387Z,25.03
2022-08-17T09:30:51.666Z,25.20
2022-08-17T09:33:26.059Z,25.45
2022-08-17T09:36:04.794Z,25.61
2022-08-17T09:38:50.401Z,25.70
2022-08-17T09:41:37.989Z,25.82
2022-08-17T09:44:10.761Z,25.92
2022-08-17T09:47:03.391Z,25.95
2022-08-17T09:49:40.710Z,26.01
2022-08-17T09:52:14.259Z,26.11
2022-08-17T09:54:45.760Z,26.14
2022-08-17T09:57:39.536Z,26.15
2022-08-17T10:00:26.870Z,26.13
2022-08-17T10:03:22.342Z,26.30
2022-08-17T10:06:00.344Z,26.36
2022-08-17T10:08:44.387Z,26.45
2022-08-17T10:11:50.311Z,26.57
2022-08-17T10:14:37.735Z,26.59
2022-08-17T10:17:38.573Z,26.63
2022-08-17T10:20:20.094Z,26.73
2022-08-17T10:23:15.284Z,26.71
2022-08-17T10:26:05.688Z,26.50
2022-08-17T10:28:40.144Z,26.53
2022-08-17T10:34:49.231Z,26.63
2022-08-17T10:37:25.056Z,26.54
2022-08-17T10:40:32.906Z,26.59
2022-08-17T10:43:10.803Z,26.55
2022-08-17T10:45:45.591Z,26.47
2022-08-17T10:48:13.793Z,26.29
2022-08-17T10:50:55.470Z,26.22
2022-08-17T10:53:38.687Z,26.19
2022-08-17T10:56:12.927Z,26.16
2022-08-17T10:58:55.467Z,26.03
2022-08-17T11:01:38.292Z,25.77
2022-08-17T11:04:35.092Z,25.67
2022-08-17T11:07:23.445Z,25.37
2022-08-17T11:10:33.100Z,25.20
2022-08-17T11:13:23.792Z,25.04
2022-08-17T11:16:14.417Z,24.88
2022-08-17T11:19:22.857Z,24.60
2022-08-17T11:21:58.946Z,24.50
2022-08-17T11:24:47.805Z,24.23
2022-08-17T11:27:32.878Z,24.10
2022-08-17T11:30:06.802Z,24.10
2022-08-17T11:32:33.086Z,24.06
2022-08-17T11:35:21.872Z,24.02
2022-08-17T11:38:16.335Z,24.02
2022-08-17T11:41:27.340Z,23.98
2022-08-17T11:43:53.639Z,24.02
2022-08-17T11:47:07.570Z,24.08
2022-08-17T11:49:58.427Z,24.04
2022-08-17T11:52:47.070Z,23.88
2022-08-17T11:55:35.696Z,23.86
2022-08-17T11:58:37.603Z,23.88
2022-08-17T12:01:32.971Z,23.92
2022-08-17T12:04:24.405Z,23.88
2022-08-17T12:06:57.382Z,23.74
2022-08-17T12:09:29.268Z,23.79
2022-08-17T12:12:13.133Z,23.79
2022-08-17T12:17:40.637Z,23.79
2022-08-17T12:20:23.400Z,23.74
2022-08-17T12:23:20.530Z,23.72
2022-08-17T12:26:07.735Z,23.55
2022-08-17T12:28:36.711Z,23.42
2022-08-17T12:31:07.596Z,23.26
2022-08-17T12:33:36.899Z,23.34
2022-08-17T12:36:08.470Z,23.37
2022-08-17T12:38:37.786Z,23.42
2022-08-17T12:41:25.618Z,23.52
2022-08-17T12:44:04.069Z,23.52
2022-08-17T12:46:35.059Z,23.52
2022-08-17T12:49:26.339Z,23.61
2022-08-17T12:52:01.864Z,23.64
2022-08-17T12:54:49.516Z,23.62
2022-08-17T12:57:17.466Z,23.66
2022-08-17T12:59:47.208Z,23.74
2022-08-17T13:02:39.031Z,23.78
2022-08-17T13:05:08.049Z,23.78
2022-08-17T13:07:44.785Z,23.80
2022-08-17T13:10:37.948Z,23.74
2022-08-17T13:13:19.435Z,23.62
2022-08-17T13:15:55.621Z,23.55
2022-08-17T13:18:40.248Z,23.43
2022-08-17T13:21:16.492Z,23.42
2022-08-17T13:24:04.750Z,23.41
2022-08-17T13:26:38.023Z,23.41
2022-08-17T13:29:23.204Z,23.38
2022-08-17T13:32:04.377Z,23.38
2022-08-17T13:34:39.909Z,23.46
2022-08-17T13:37:29.088Z,23.48
2022-08-17T13:40:10.960Z,23.50
2022-08-17T13:42:50.456Z,23.48
2022-08-17T13:45:35.984Z,23.57
2022-08-17T13:48:10.993Z,23.60
2022-08-17T13:50:47.040Z,23.61
2022-08-17T13:53:23.184Z,23.68
2022-08-17T13:55:58.290Z,23.69
2022-08-17T13:58:35.547Z,23.79
2022-08-17T14:01:39.794Z,23.75
2022-08-17T14:04:28.640Z,23.72
2022-08-17T14:07:03.023Z,23.65
2022-08-17T14:09:37.171Z,23.52
2022-08-17T14:12:08.511Z,23.52
2022-08-17T14:14:35.035Z,23.49
2022-08-17T14:17:01.592Z,23.52
2022-08-17T14:19:28.028Z,23.48
2022-08-17T14:21:58.936Z,23.54
2022-08-17T14:24:31.455Z,23.58
2022-08-17T14:27:00.179Z,23.61
2022-08-17T14:29:28.655Z,23.75
2022-08-17T14:31:56.631Z,23.83
2022-08-17T14:34:23.392Z,23.98
2022-08-17T14:36:50.695Z,23.87
2022-08-17T14:39:18.448Z,24.02
2022-08-17T14:41:44.988Z,24.10
2022-08-17T14:44:12.452Z,24.07
2022-08-17T14:46:43.669Z,24.11
2022-08-17T14:49:12.920Z,24.23
2022-08-17T14:51:44.015Z,24.45
2022-08-17T14:54:12.071Z,24.48
2022-08-17T14:57:22.749Z,24.65
2022-08-17T14:59:45.276Z,24.88
2022-08-17T15:02:12.927Z,24.84
2022-08-17T15:04:44.899Z,25.01
2022-08-17T15:07:11.914Z,25.17
2022-08-17T15:09:38.945Z,25.23
2022-08-17T15:12:08.742Z,25.25
2022-08-17T15:14:36.263Z,25.41
2022-08-17T15:17:03.690Z,25.35
2022-08-17T15:19:30.466Z,25.39
2022-08-17T15:21:56.895Z,25.45
2022-08-17T15:24:23.279Z,25.56
2022-08-17T15:26:49.855Z,25.64
2022-08-17T15:29:16.461Z,25.67
2022-08-17T15:31:43.407Z,25.87
2022-08-17T15:34:09.838Z,26.02
2022-08-17T15:36:36.986Z,26.25
2022-08-17T15:39:05.241Z,26.32
2022-08-17T15:41:31.648Z,26.30
2022-08-17T15:43:58.095Z,26.28
2022-08-17T15:46:25.997Z,26.27
2022-08-17T15:48:54.725Z,26.35
2022-08-17T15:51:24.512Z,26.26
2022-08-17T15:54:04.373Z,26.17
2022-08-17T15:56:46.100Z,26.12
2022-08-17T15:59:12.630Z,26.15
2022-08-17T16:03:01.563Z,26.16
2022-08-17T16:04:30.184Z,26.04
2022-08-17T16:06:57.825Z,25.99
2022-08-17T16:09:24.237Z,26.02
2022-08-17T16:11:53.843Z,25.94
2022-08-17T16:14:22.552Z,25.86
2022-08-17T16:16:50.473Z,25.60
2022-08-17T16:19:16.819Z,25.55
2022-08-17T16:21:43.437Z,25.45
2022-08-17T16:24:12.679Z,25.34
2022-08-17T16:26:41.206Z,25.03
2022-08-17T16:29:07.940Z,24.85
2022-08-17T16:31:35.949Z,24.70
2022-08-17T16:34:18.024Z,24.65
2022-08-17T16:36:54.689Z,24.59
2022-08-17T16:39:22.814Z,24.39
2022-08-17T16:41:50.220Z,24.32
2022-08-17T16:44:20.211Z,24.34
2022-08-17T16:46:48.174Z,24.15
2022-08-17T16:49:35.749Z,24.23
2022-08-17T16:52:03.285Z,24.17
2022-08-17T16:54:29.716Z,24.21
2022-08-17T16:56:56.067Z,24.11
2022-08-17T16:59:30.829Z,24.14
2022-08-17T17:02:04.695Z,24.10
2022-08-17T17:04:35.320Z,24.07
2022-08-17T17:07:17.275Z,24.08
2022-08-17T17:09:47.751Z,24.11
2022-08-17T17:12:19.148Z,24.13
2022-08-17T17:15:02.113Z,24.04
2022-08-17T17:17:30.352Z,24.05
2022-08-17T17:20:11.749Z,24.07
2022-08-17T17:22:48.155Z,23.95
2022-08-17T17:25:32.603Z,24.00
2022-08-17T17:28:02.025Z,23.84
2022-08-17T17:30:48.834Z,23.80
2022-08-17T17:33:37.487Z,23.86
2022-08-17T17:36:08.427Z,23.80
2022-08-17T17:38:48.916Z,23.85
2022-08-17T17:41:25.799Z,23.75
2022-08-17T17:44:01.837Z,23.76
2022-08-17T17:46:37.838Z,23.71
2022-08-17T17:49:05.917Z,23.67
2022-08-17T17:52:09.555Z,23.75
2022-08-17T17:54:46.001Z,23.68
2022-08-17T17:57:36.495Z,23.66
2022-08-17T18:00:25.885Z,23.65
2022-08-17T18:03:16.278Z,23.60
2022-08-17T18:06:10.315Z,23.49
2022-08-17T18:08:52.794Z,23.29
2022-08-17T18:11:51.483Z,23.28
2022-08-17T18:14:26.930Z,23.18
2022-08-17T18:16:56.762Z,23.13
2022-08-17T18:19:25.804Z,23.10
2022-08-17T18:22:00.814Z,23.09
2022-08-17T18:24:36.880Z,23.00
2022-08-17T18:27:19.022Z,22.81
2022-08-17T18:29:48.153Z,22.68
2022-08-17T18:32:28.984Z,22.70
2022-08-17T18:34:58.768Z,22.73
2022-08-17T18:37:50.284Z,22.62
2022-08-17T18:40:16.919Z,22.54
2022-08-17T18:42:45.741Z,22.60
2022-08-17T18:45:13.324Z,22.59
2022-08-17T18:47:54.715Z,22.53
2022-08-17T18:50:28.216Z,22.48
2022-08-17T18:53:21.264Z,22.43
2022-08-17T18:56:32.727Z,22.37
2022-08-17T18:59:16.738Z,22.33
2022-08-17T19:02:00.550Z,22.30
2022-08-17T19:04:34.077Z,22.25
2022-08-17T19:07:09.122Z,22.21
2022-08-17T19:09:42.189Z,22.15
2022-08-17T19:12:13.293Z,22.15
2022-08-17T19:14:40.357Z,22.18
2022-08-17T19:17:19.264Z,22.18
2022-08-17T19:19:53.912Z,22.15
2022-08-17T19:22:28.993Z,22.05
2022-08-17T19:25:10.373Z,22.05
2022-08-17T19:27:46.495Z,22.06
2022-08-17T19:30:16.784Z,21.96
2022-08-17T19:32:43.293Z,21.98
2022-08-17T19:35:17.199Z,22.01
2022-08-17T19:38:12.755Z,22.00
2022-08-17T19:41:03.164Z,21.95
2022-08-17T19:44:15.671Z,21.95
2022-08-17T19:47:06.027Z,21.87
2022-08-17T19:49:48.007Z,21.86
2022-08-17T19:52:33.211Z,21.76
2022-08-17T19:55:31.402Z,21.71
2022-08-17T19:57:57.916Z,21.61
2022-08-17T20:00:24.587Z,21.52
2022-08-17T20:03:07.864Z,21.59
2022-08-17T20:06:10.850Z,21.57
2022-08-17T20:08:50.566Z,21.53
2022-08-17T20:11:42.014Z,21.54
2022-08-17T20:14:19.495Z,21.44
2022-08-17T20:16:46.237Z,21.40
2022-08-17T20:19:32.346Z,21.36
2022-08-17T20:22:31.562Z,21.38
2022-08-17T20:25:30.006Z,21.43
2022-08-17T20:28:06.011Z,21.44
2022-08-17T20:30:40.871Z,21.43
2022-08-17T20:33:22.015Z,21.49
2022-08-17T20:36:02.660Z,21.56
2022-08-17T20:38:45.980Z,21.52
2022-08-17T20:41:18.101Z,21.46
2022-08-17T20:44:00.531Z,21.44
2022-08-17T20:46:35.600Z,21.46
2022-08-17T20:49:11.174Z,21.44
2022-08-17T20:52:02.415Z,21.35
2022-08-17T20:54:41.519Z,21.38
2022-08-17T20:57:14.133Z,21.32
2022-08-17T20:59:43.560Z,21.32
2022-08-17T21:02:20.157Z,21.29
2022-08-17T21:04:49.654Z,21.33
2022-08-17T21:07:30.287Z,21.32
2022-08-17T21:10:16.546Z,21.25
2022-08-17T21:12:49.944Z,21.21
2022-08-17T21:15:53.882Z,21.18
2022-08-17T21:18:23.337Z,21.07
2022-08-17T21:21:08.155Z,21.11
2022-08-17T21:23:46.761Z,20.95
2022-08-17T21:26:50.321Z,21.03
2022-08-17T21:29:31.731Z,21.02
2022-08-17T21:31:59.020Z,21.03
2022-08-17T21:34:31.255Z,21.08
2022-08-17T21:37:20.516Z,21.09
2022-08-17T21:39:52.099Z,21.09
2022-08-17T21:42:24.982Z,21.06
2022-08-17T21:44:54.786Z,21.07
2022-08-17T21:47:24.559Z,21.08
2022-08-17T21:49:52.344Z,21.07
2022-08-17T21:52:21.862Z,21.07
2022-08-17T21:54:51.972Z,21.07
2022-08-17T21:57:22.996Z,21.09
2022-08-17T21:59:58.407Z,21.14
2022-08-17T22:02:30.018Z,21.20
2022-08-17T22:04:58.172Z,21.20
2022-08-17T22:07:34.847Z,21.27
2022-08-17T22:10:01.433Z,21.20
2022-08-17T22:12:27.905Z,21.16
2022-08-17T22:15:05.845Z,21.14
2022-08-17T22:17:45.221Z,21.16
2022-08-17T22:20:16.830Z,21.10
2022-08-17T22:23:04.891Z,21.15
2022-08-17T22:25:35.805Z,21.18
2022-08-17T22:28:05.592Z,21.23
2022-08-17T22:31:01.741Z,21.32
2022-08-17T22:33:40.355Z,21.27
2022-08-17T22:36:24.696Z,21.36
2022-08-17T22:39:00.183Z,21.36
2022-08-17T22:41:37.564Z,21.35
2022-08-17T22:44:19.080Z,21.32
2022-08-17T22:47:11.615Z,21.30
2022-08-17T22:49:53.264Z,21.30
2022-08-17T22:52:59.350Z,21.35
2022-08-17T22:55:48.183Z,21.38
2022-08-17T22:58:37.317Z,21.40
2022-08-17T23:01:36.104Z,21.41
2022-08-17T23:04:06.396Z,21.40
2022-08-17T23:06:34.224Z,21.44
2022-08-17T23:09:03.794Z,21.47
2022-08-17T23:11:49.307Z,21.49
2022-08-17T23:14:19.638Z,21.52
2022-08-17T23:16:47.083Z,21.55
2022-08-17T23:19:16.497Z,21.57
2022-08-17T23:21:47.057Z,21.55
2022-08-17T23:24:19.641Z,21.58
2022-08-17T23:26:46.158Z,21.56
2022-08-17T23:29:12.586Z,21.58
2022-08-17T23:31:39.859Z,21.62
2022-08-17T23:34:11.490Z,21.63
2022-08-17T23:36:38.312Z,21.60
2022-08-17T23:39:06.301Z,21.61
2022-08-17T23:41:36.270Z,21.61
2022-08-17T23:44:04.874Z,21.59
2022-08-17T23:46:31.255Z,21.57
2022-08-17T23:48:57.590Z,21.58
2022-08-17T23:51:31.339Z,21.61
2022-08-17T23:54:07.900Z,21.57
2022-08-17T23:56:40.024Z,21.51
2022-08-17T23:59:06.420Z,21.33
